CheckWX is a tool to help pilots better visualize weather data.  It is not intended as a substitute for an official pre-flight weather briefing.

07:19:39 UTC

PAPG METAR
Petersburg James A Johnson Airport
Petersburg, Alaska, USA
Current

1 hour ago

PAPG 180556Z 21003KT 10SM CLR 09/08 A2986
Observed
Sep-18 @ 05:56 UTC
Wind
  • 210° at 3 KTS
Visibility
10 SM
Flight Rules
VFR
Cloud Levels
  • Clear skies
Temperature
C / 48°F
Dewpoint
C / 46°F
Humidity
94%
Altimeter
29.86" Hg
Pressure
1011.22 hPa
Previous

2 hours ago

PAPG 180456Z 22003KT 10SM CLR 09/09 A2985 RMK AO2 SLP111 T00940089
Observed
Sep-18 @ 04:56 UTC
Wind
  • 220° at 3 KTS
Visibility
10 SM
Flight Rules
VFR
Cloud Levels
  • Clear skies
Temperature
C / 48°F
Dewpoint
C / 48°F
Humidity
100%
Altimeter
29.85" Hg
Pressure
1010.82 hPa
Previous

4 hours ago

PAPG 180256Z 00000KT 10SM CLR 11/09 A2981 RMK AO2 SLP099 T01110094 53012
Observed
Sep-18 @ 02:56 UTC
Visibility
10 SM
Flight Rules
VFR
Cloud Levels
  • Clear skies
Temperature
11°C / 52°F
Dewpoint
C / 48°F
Humidity
88%
Altimeter
29.81" Hg
Pressure
1009.52 hPa